createdAt,value
2022-07-26T00:01:20.330Z,99666.00
2022-07-26T00:03:50.278Z,99674.09
2022-07-26T00:06:19.187Z,99676.53
2022-07-26T00:08:47.967Z,99679.91
2022-07-26T00:11:16.036Z,99662.81
2022-07-26T00:13:43.834Z,99665.41
2022-07-26T00:16:11.994Z,99669.84
2022-07-26T00:18:39.703Z,99672.91
2022-07-26T00:21:07.257Z,99669.81
2022-07-26T00:23:34.745Z,99668.47
2022-07-26T00:26:02.457Z,99663.88
2022-07-26T00:28:30.021Z,99671.03
2022-07-26T00:30:57.542Z,99660.97
2022-07-26T00:33:25.244Z,99664.31
2022-07-26T00:35:52.822Z,99655.94
2022-07-26T00:38:20.337Z,99660.03
2022-07-26T00:40:48.226Z,99655.50
2022-07-26T00:43:15.888Z,99655.50
2022-07-26T00:45:43.784Z,99657.28
2022-07-26T00:48:11.631Z,99649.94
2022-07-26T00:50:39.201Z,99652.09
2022-07-26T00:53:07.035Z,99655.28
2022-07-26T00:55:35.010Z,99661.69
2022-07-26T00:58:02.607Z,99656.50
2022-07-26T01:00:30.387Z,99657.53
2022-07-26T01:03:00.573Z,99648.69
2022-07-26T01:05:29.187Z,99647.31
2022-07-26T01:07:57.621Z,99651.72
2022-07-26T01:10:26.021Z,99647.16
2022-07-26T01:12:53.845Z,99653.53
2022-07-26T01:15:21.954Z,99644.38
2022-07-26T01:17:49.842Z,99641.75
2022-07-26T01:20:17.460Z,99637.97
2022-07-26T01:22:45.006Z,99642.22
2022-07-26T01:25:12.869Z,99637.63
2022-07-26T01:27:40.586Z,99630.63
2022-07-26T01:30:11.314Z,99625.91
2022-07-26T01:32:39.481Z,99624.84
2022-07-26T01:35:07.952Z,99627.25
2022-07-26T01:37:35.749Z,99628.47
2022-07-26T01:40:05.285Z,99632.41
2022-07-26T01:42:34.718Z,99633.97
2022-07-26T01:45:02.542Z,99625.72
2022-07-26T01:47:30.362Z,99625.41
2022-07-26T01:49:57.902Z,99622.31
2022-07-26T01:52:27.431Z,99628.25
2022-07-26T01:54:55.462Z,99628.25
2022-07-26T01:57:22.955Z,99624.44
2022-07-26T01:59:50.568Z,99622.47
2022-07-26T02:02:18.430Z,99621.72
2022-07-26T02:05:01.953Z,99628.41
2022-07-26T02:07:38.741Z,99620.16
2022-07-26T02:10:08.442Z,99630.84
2022-07-26T02:12:40.189Z,99620.75
2022-07-26T02:15:10.121Z,99626.69
2022-07-26T02:17:37.756Z,99613.91
2022-07-26T02:20:07.161Z,99617.84
2022-07-26T02:22:35.679Z,99601.84
2022-07-26T02:25:05.471Z,99611.59
2022-07-26T02:27:33.558Z,99609.75
2022-07-26T02:30:02.013Z,99608.22
2022-07-26T02:32:29.510Z,99601.22
2022-07-26T02:34:57.207Z,99602.75
2022-07-26T02:37:24.688Z,99605.47
2022-07-26T02:39:52.847Z,99603.97
2022-07-26T02:42:20.752Z,99605.19
2022-07-26T02:45:07.798Z,99598.94
2022-07-26T02:47:35.578Z,99598.19
2022-07-26T02:50:03.093Z,99605.19
2022-07-26T02:52:30.578Z,99596.19
2022-07-26T02:54:58.669Z,99591.91
2022-07-26T02:57:26.260Z,99591.78
2022-07-26T02:59:53.762Z,99598.78
2022-07-26T03:02:21.457Z,99600.34
2022-07-26T03:04:50.403Z,99593.31
2022-07-26T03:07:17.902Z,99598.50
2022-07-26T03:09:45.651Z,99593.31
2022-07-26T03:12:13.114Z,99594.50
2022-07-26T03:14:40.620Z,99583.53
2022-07-26T03:17:08.319Z,99582.34
2022-07-26T03:19:35.777Z,99580.81
2022-07-26T03:22:03.349Z,99579.28
2022-07-26T03:24:31.102Z,99580.03
2022-07-26T03:26:58.691Z,99570.75
2022-07-26T03:29:26.338Z,99571.50
2022-07-26T03:31:54.189Z,99574.25
2022-07-26T03:34:21.808Z,99565.28
2022-07-26T03:36:49.340Z,99575.00
2022-07-26T03:39:17.110Z,99575.31
2022-07-26T03:41:44.656Z,99582.34
2022-07-26T03:44:12.175Z,99574.41
2022-07-26T03:46:39.912Z,99571.97
2022-07-26T03:49:07.507Z,99575.06
2022-07-26T03:51:35.097Z,99573.69
2022-07-26T03:54:02.819Z,99577.22
2022-07-26T03:56:33.301Z,99570.94
2022-07-26T03:59:11.150Z,99576.28
2022-07-26T04:01:42.074Z,99565.63
2022-07-26T04:04:11.970Z,99568.38
2022-07-26T04:06:40.543Z,99562.41
2022-07-26T04:09:08.800Z,99565.63
2022-07-26T04:11:36.432Z,99558.91
2022-07-26T04:14:04.595Z,99558.00
2022-07-26T04:16:32.669Z,99561.84
2022-07-26T04:19:00.273Z,99565.69
2022-07-26T04:21:28.137Z,99558.38
2022-07-26T04:23:55.689Z,99560.53
2022-07-26T04:26:23.481Z,99554.44
2022-07-26T04:28:51.239Z,99557.03
2022-07-26T04:31:19.015Z,99558.84
2022-07-26T04:33:46.865Z,99559.16
2022-07-26T04:36:14.714Z,99565.72
2022-07-26T04:38:42.343Z,99554.28
2022-07-26T04:41:10.225Z,99551.09
2022-07-26T04:43:37.972Z,99564.19
2022-07-26T04:46:05.689Z,99554.59
2022-07-26T04:48:33.293Z,99548.97
2022-07-26T04:51:01.759Z,99548.34
2022-07-26T04:53:29.239Z,99556.72
2022-07-26T04:55:56.761Z,99553.81
2022-07-26T04:58:24.435Z,99554.47
2022-07-26T05:03:39.969Z,99546.50
2022-07-26T05:06:07.739Z,99550.34
2022-07-26T05:08:35.292Z,99541.94
2022-07-26T05:11:04.257Z,99544.56
2022-07-26T05:13:31.886Z,99542.69
2022-07-26T05:16:00.102Z,99548.66
2022-07-26T05:18:29.984Z,99552.59
2022-07-26T05:21:00.460Z,99558.81
2022-07-26T05:23:27.978Z,99555.28
2022-07-26T05:25:56.431Z,99556.03
2022-07-26T05:28:24.051Z,99556.50
2022-07-26T05:30:52.169Z,99555.72
2022-07-26T05:33:20.503Z,99556.13
2022-07-26T05:35:48.150Z,99562.06
2022-07-26T05:38:15.604Z,99567.41
2022-07-26T05:40:47.280Z,99561.09
2022-07-26T05:43:18.338Z,99561.38
2022-07-26T05:45:46.295Z,99557.41
2022-07-26T05:48:14.044Z,99561.66
2022-07-26T05:50:41.600Z,99555.69
2022-07-26T05:53:09.429Z,99567.00
2022-07-26T05:55:36.929Z,99558.59
2022-07-26T05:58:04.465Z,99562.38
2022-07-26T06:00:32.358Z,99567.91
2022-07-26T06:03:00.033Z,99559.94
2022-07-26T06:05:27.546Z,99560.84
2022-07-26T06:07:55.335Z,99563.59
2022-07-26T06:10:22.871Z,99553.66
2022-07-26T06:12:50.438Z,99559.00
2022-07-26T06:15:18.475Z,99556.53
2022-07-26T06:17:45.977Z,99557.13
2022-07-26T06:20:13.438Z,99555.00
2022-07-26T06:22:41.218Z,99565.06
2022-07-26T06:25:09.149Z,99558.31
2022-07-26T06:27:36.733Z,99557.56
2022-07-26T06:30:05.517Z,99556.81
2022-07-26T06:32:33.028Z,99557.56
2022-07-26T06:35:00.913Z,99552.34
2022-07-26T06:37:28.699Z,99551.88
2022-07-26T06:39:56.294Z,99545.63
2022-07-26T06:42:24.743Z,99542.41
2022-07-26T06:44:52.575Z,99543.16
2022-07-26T06:47:20.032Z,99548.19
2022-07-26T06:49:47.533Z,99543.75
2022-07-26T06:52:15.276Z,99543.56
2022-07-26T06:54:42.873Z,99539.88
2022-07-26T06:57:10.597Z,99526.69
2022-07-26T06:59:38.499Z,99525.28
2022-07-26T07:02:06.239Z,99524.63
2022-07-26T07:04:34.814Z,99518.00
2022-07-26T07:07:05.718Z,99513.63
2022-07-26T07:09:35.586Z,99518.59
2022-07-26T07:12:09.720Z,99510.75
2022-07-26T07:14:39.144Z,99510.66
2022-07-26T07:17:12.247Z,99513.31
2022-07-26T07:19:41.673Z,99509.69
2022-07-26T07:22:12.269Z,99508.56
2022-07-26T07:24:41.634Z,99505.88
2022-07-26T07:27:10.418Z,99507.50
2022-07-26T07:29:41.342Z,99516.44
2022-07-26T07:32:18.082Z,99505.28
2022-07-26T07:34:48.621Z,99515.75
2022-07-26T07:37:17.940Z,99518.66
2022-07-26T07:39:50.741Z,99521.84
2022-07-26T07:42:19.915Z,99519.72
2022-07-26T07:44:47.782Z,99523.16
2022-07-26T07:47:15.788Z,99514.09
2022-07-26T07:49:43.609Z,99518.94
2022-07-26T07:52:11.219Z,99515.00
2022-07-26T07:54:39.120Z,99513.41
2022-07-26T07:57:06.687Z,99517.13
2022-07-26T07:59:39.221Z,99515.00
2022-07-26T08:02:07.839Z,99524.72
2022-07-26T08:04:35.980Z,99522.78
2022-07-26T08:07:03.673Z,99523.41
2022-07-26T08:09:34.006Z,99512.63
2022-07-26T08:12:02.694Z,99520.84
2022-07-26T08:14:30.707Z,99525.94
2022-07-26T08:16:58.563Z,99530.53
2022-07-26T08:19:40.949Z,99526.44
2022-07-26T08:22:11.088Z,99533.75
2022-07-26T08:24:38.971Z,99530.53
2022-07-26T08:27:07.299Z,99521.78
2022-07-26T08:29:35.121Z,99520.88
2022-07-26T08:32:02.652Z,99512.63
2022-07-26T08:34:30.304Z,99514.97
2022-07-26T08:37:15.990Z,99516.00
2022-07-26T08:39:44.994Z,99517.25
2022-07-26T08:42:23.186Z,99512.50
2022-07-26T08:44:51.954Z,99515.06
2022-07-26T08:47:39.928Z,99516.84
2022-07-26T08:50:10.003Z,99510.84
2022-07-26T08:52:40.999Z,99524.44
2022-07-26T08:55:09.367Z,99521.44
2022-07-26T08:57:37.151Z,99515.66
2022-07-26T09:00:29.624Z,99517.22
2022-07-26T09:02:59.666Z,99517.28
2022-07-26T09:05:29.123Z,99519.31
2022-07-26T09:07:57.882Z,99516.31
2022-07-26T09:10:26.508Z,99517.59
2022-07-26T09:12:58.573Z,99521.91
2022-07-26T09:15:28.167Z,99527.19
2022-07-26T09:17:58.121Z,99525.47
2022-07-26T09:20:32.158Z,99523.47
2022-07-26T09:23:14.076Z,99522.47
2022-07-26T09:25:45.375Z,99526.50
2022-07-26T09:28:31.603Z,99533.31
2022-07-26T09:31:04.016Z,99525.00
2022-07-26T09:33:47.467Z,99523.22
2022-07-26T09:36:16.025Z,99518.94
2022-07-26T09:38:53.799Z,99518.69
2022-07-26T09:41:36.752Z,99526.53
2022-07-26T09:44:19.706Z,99520.72
2022-07-26T09:46:59.202Z,99527.28
2022-07-26T09:49:40.079Z,99520.97
2022-07-26T09:52:20.513Z,99521.69
2022-07-26T09:54:49.663Z,99521.44
2022-07-26T09:57:19.686Z,99517.66
2022-07-26T09:59:47.862Z,99515.88
2022-07-26T10:02:15.913Z,99518.88
2022-07-26T10:04:44.466Z,99510.06
2022-07-26T10:07:12.136Z,99512.81
2022-07-26T10:09:49.122Z,99510.78
2022-07-26T10:12:17.682Z,99509.31
2022-07-26T10:14:48.021Z,99514.84
2022-07-26T10:17:31.324Z,99511.31
2022-07-26T10:20:09.279Z,99516.13
2022-07-26T10:22:47.587Z,99512.06
2022-07-26T10:25:18.351Z,99502.47
2022-07-26T10:27:48.513Z,99504.75
2022-07-26T10:30:20.095Z,99504.75
2022-07-26T10:33:10.259Z,99498.69
2022-07-26T10:35:43.547Z,99504.22
2022-07-26T10:38:26.478Z,99501.22
2022-07-26T10:41:01.538Z,99497.91
2022-07-26T10:43:40.558Z,99498.19
2022-07-26T10:46:18.729Z,99503.22
2022-07-26T10:49:07.485Z,99494.31
2022-07-26T10:51:41.026Z,99497.19
2022-07-26T10:54:13.909Z,99487.84
2022-07-26T10:56:42.579Z,99502.03
2022-07-26T10:59:10.087Z,99480.47
2022-07-26T11:01:41.748Z,99489.00
2022-07-26T11:04:20.577Z,99499.59
2022-07-26T11:06:48.963Z,99496.59
2022-07-26T11:09:20.709Z,99500.22
2022-07-26T11:11:52.480Z,99495.09
2022-07-26T11:14:22.841Z,99499.09
2022-07-26T11:16:51.074Z,99515.66
2022-07-26T11:19:27.591Z,99484.88
2022-07-26T11:22:00.870Z,99492.41
2022-07-26T11:24:29.480Z,99517.56
2022-07-26T11:27:04.307Z,99501.69
2022-07-26T11:29:37.970Z,99498.31
2022-07-26T11:32:20.461Z,99497.91
2022-07-26T11:35:03.788Z,99488.09
2022-07-26T11:37:32.113Z,99495.59
2022-07-26T11:39:59.579Z,99486.38
2022-07-26T11:42:27.206Z,99481.34
2022-07-26T11:44:54.928Z,99484.59
2022-07-26T11:47:25.709Z,99481.91
2022-07-26T11:50:12.894Z,99480.97
2022-07-26T11:52:45.219Z,99477.66
2022-07-26T11:55:12.989Z,99489.34
2022-07-26T11:57:40.822Z,99482.81
2022-07-26T12:00:09.627Z,99496.53
2022-07-26T12:02:40.205Z,99487.97
2022-07-26T12:05:23.605Z,99500.84
2022-07-26T12:08:02.831Z,99485.16
2022-07-26T12:10:30.699Z,99476.94
2022-07-26T12:13:14.213Z,99493.72
2022-07-26T12:15:53.428Z,99467.91
2022-07-26T12:18:34.061Z,99470.47
2022-07-26T12:21:08.863Z,99468.41
2022-07-26T12:23:46.361Z,99462.19
2022-07-26T12:26:27.205Z,99455.75
2022-07-26T12:28:58.158Z,99456.97
2022-07-26T12:31:34.218Z,99447.50
2022-07-26T12:34:02.214Z,99458.47
2022-07-26T12:36:33.459Z,99444.88
2022-07-26T12:39:01.424Z,99454.13
2022-07-26T12:41:33.927Z,99458.25
2022-07-26T12:44:01.587Z,99437.56
2022-07-26T12:46:36.030Z,99436.41
2022-07-26T12:49:05.580Z,99438.72
2022-07-26T12:51:33.703Z,99430.81
2022-07-26T12:54:01.497Z,99433.53
2022-07-26T12:56:29.567Z,99433.75
2022-07-26T12:59:01.504Z,99430.88
2022-07-26T13:01:31.933Z,99427.56
2022-07-26T13:04:00.400Z,99423.78
2022-07-26T13:06:28.192Z,99412.13
2022-07-26T13:08:56.627Z,99427.84
2022-07-26T13:11:25.284Z,99422.69
2022-07-26T13:13:52.823Z,99426.84
2022-07-26T13:16:20.657Z,99410.81
2022-07-26T13:18:48.180Z,99433.97
2022-07-26T13:21:15.822Z,99418.34
2022-07-26T13:23:43.597Z,99423.91
2022-07-26T13:26:11.292Z,99417.53
2022-07-26T13:28:40.562Z,99421.84
2022-07-26T13:31:08.417Z,99419.25
2022-07-26T13:33:39.325Z,99425.06
2022-07-26T13:36:06.979Z,99419.44
2022-07-26T13:38:35.109Z,99442.66
2022-07-26T13:41:04.392Z,99423.97
2022-07-26T13:43:32.262Z,99428.13
2022-07-26T13:46:00.058Z,99437.06
2022-07-26T13:48:28.117Z,99431.13
2022-07-26T13:50:57.510Z,99427.78
2022-07-26T13:53:25.637Z,99426.28
2022-07-26T13:55:53.558Z,99427.78
2022-07-26T13:58:21.774Z,99422.94
2022-07-26T14:00:49.821Z,99420.31
2022-07-26T14:03:17.570Z,99425.38
2022-07-26T14:05:45.470Z,99423.28
2022-07-26T14:08:13.355Z,99422.72
2022-07-26T14:10:41.455Z,99422.19
2022-07-26T14:13:09.400Z,99420.50
2022-07-26T14:15:37.481Z,99414.38
2022-07-26T14:18:05.891Z,99419.97
2022-07-26T14:20:33.413Z,99434.19
2022-07-26T14:23:01.318Z,99423.13
2022-07-26T14:25:29.203Z,99424.09
2022-07-26T14:28:00.109Z,99421.81
2022-07-26T14:30:28.072Z,99422.97
2022-07-26T14:32:55.787Z,99422.94
2022-07-26T14:35:23.401Z,99429.69
2022-07-26T14:37:51.303Z,99427.59
2022-07-26T14:40:18.940Z,99422.50
2022-07-26T14:42:47.281Z,99416.50
2022-07-26T14:45:15.657Z,99415.78
2022-07-26T14:47:43.990Z,99415.94
2022-07-26T14:50:13.740Z,99415.94
2022-07-26T14:52:47.964Z,99415.78
2022-07-26T14:55:20.512Z,99412.22
2022-07-26T14:57:52.935Z,99404.97
2022-07-26T15:00:20.531Z,99402.72
2022-07-26T15:02:49.068Z,99407.25
2022-07-26T15:05:18.023Z,99416.97
2022-07-26T15:07:46.107Z,99402.75
2022-07-26T15:10:14.397Z,99403.72
2022-07-26T15:12:43.641Z,99424.47
2022-07-26T15:15:14.639Z,99413.41
2022-07-26T15:17:42.653Z,99406.84
2022-07-26T15:20:10.267Z,99419.53
2022-07-26T15:22:37.968Z,99409.19
2022-07-26T15:25:08.933Z,99419.84
2022-07-26T15:27:36.821Z,99414.63
2022-07-26T15:30:10.235Z,99426.59
2022-07-26T15:32:42.352Z,99420.97
2022-07-26T15:35:14.438Z,99427.16
2022-07-26T15:37:43.909Z,99415.81
2022-07-26T15:40:12.640Z,99428.94
2022-07-26T15:42:44.313Z,99425.38
2022-07-26T15:45:14.033Z,99429.72
2022-07-26T15:48:05.531Z,99446.13
2022-07-26T15:50:29.973Z,99431.16
2022-07-26T15:52:57.635Z,99438.66
2022-07-26T15:55:25.392Z,99430.81
2022-07-26T15:57:54.649Z,99431.94
2022-07-26T16:00:22.315Z,99440.16
2022-07-26T16:02:50.032Z,99429.50
2022-07-26T16:05:18.829Z,99431.94
2022-07-26T16:07:46.491Z,99436.22
2022-07-26T16:10:14.996Z,99436.78
2022-07-26T16:12:42.931Z,99438.09
2022-07-26T16:15:11.855Z,99451.03
2022-07-26T16:17:40.038Z,99447.09
2022-07-26T16:20:08.736Z,99443.88
2022-07-26T16:22:41.002Z,99453.25
2022-07-26T16:25:13.205Z,99447.28
2022-07-26T16:27:43.271Z,99441.25
2022-07-26T16:30:16.224Z,99453.03
2022-07-26T16:32:43.823Z,99443.03
2022-07-26T16:35:12.546Z,99440.00
2022-07-26T16:37:41.457Z,99435.44
2022-07-26T16:40:10.695Z,99449.94
2022-07-26T16:42:38.581Z,99449.69
2022-07-26T16:45:06.853Z,99451.66
2022-07-26T16:47:34.398Z,99443.72
2022-07-26T16:50:02.386Z,99440.19
2022-07-26T16:52:30.100Z,99454.88
2022-07-26T16:54:57.876Z,99474.88
2022-07-26T16:57:26.129Z,99451.84
2022-07-26T16:59:53.649Z,99454.06
2022-07-26T17:02:21.305Z,99505.59
2022-07-26T17:04:49.167Z,99520.78
2022-07-26T17:07:25.365Z,99526.72
2022-07-26T17:09:55.792Z,99534.75
2022-07-26T17:12:24.282Z,99523.47
2022-07-26T17:14:52.059Z,99542.53
2022-07-26T17:17:19.937Z,99560.75
2022-07-26T17:19:47.658Z,99563.31
2022-07-26T17:22:15.974Z,99555.78
2022-07-26T17:24:44.096Z,99567.59
2022-07-26T17:27:11.818Z,99575.91
2022-07-26T17:29:39.325Z,99581.69
2022-07-26T17:32:07.892Z,99588.44
2022-07-26T17:34:35.680Z,99572.78
2022-07-26T17:37:05.954Z,99578.28
2022-07-26T17:39:52.352Z,99597.34
2022-07-26T17:42:21.978Z,99597.25
2022-07-26T17:44:50.610Z,99619.34
2022-07-26T17:47:29.192Z,99605.41
2022-07-26T17:50:35.955Z,99599.78
2022-07-26T17:52:52.745Z,99610.78
2022-07-26T17:55:21.712Z,99605.16
2022-07-26T17:57:49.947Z,99612.66
2022-07-26T18:00:23.284Z,99610.59
2022-07-26T18:02:54.871Z,99612.34
2022-07-26T18:05:22.707Z,99606.28
2022-07-26T18:07:50.428Z,99619.03
2022-07-26T18:10:18.218Z,99613.41
2022-07-26T18:12:45.813Z,99622.66
2022-07-26T18:15:13.581Z,99622.66
2022-07-26T18:17:41.620Z,99635.25
2022-07-26T18:20:10.311Z,99642.31
2022-07-26T18:22:38.348Z,99649.34
2022-07-26T18:25:07.429Z,99644.03
2022-07-26T18:27:35.231Z,99647.00
2022-07-26T18:30:03.912Z,99649.75
2022-07-26T18:32:32.000Z,99649.97
2022-07-26T18:34:59.515Z,99653.66
2022-07-26T18:37:26.994Z,99650.09
2022-07-26T18:39:57.839Z,99647.56
2022-07-26T18:42:27.006Z,99650.31
2022-07-26T18:44:54.561Z,99652.56
2022-07-26T18:47:22.721Z,99649.03
2022-07-26T18:49:50.803Z,99648.19
2022-07-26T18:52:28.640Z,99644.69
2022-07-26T18:55:06.735Z,99665.97
2022-07-26T18:57:42.103Z,99654.97
2022-07-26T19:00:14.363Z,99660.97
2022-07-26T19:02:43.829Z,99672.03
2022-07-26T19:05:12.059Z,99667.28
2022-07-26T19:07:40.361Z,99669.78
2022-07-26T19:10:10.497Z,99675.00
2022-07-26T19:12:38.651Z,99677.66
2022-07-26T19:15:08.544Z,99685.09
2022-07-26T19:17:37.530Z,99700.91
2022-07-26T19:20:07.146Z,99705.28
2022-07-26T19:22:35.323Z,99719.69
2022-07-26T19:25:04.179Z,99711.56
2022-07-26T19:27:32.036Z,99714.81
2022-07-26T19:29:59.541Z,99705.50
2022-07-26T19:32:31.732Z,99711.22
2022-07-26T19:35:01.318Z,99722.75
2022-07-26T19:37:28.826Z,99726.94
2022-07-26T19:40:00.339Z,99733.16
2022-07-26T19:42:31.091Z,99737.84
2022-07-26T19:44:59.520Z,99742.25
2022-07-26T19:47:29.823Z,99741.97
2022-07-26T19:49:58.751Z,99742.72
2022-07-26T19:52:26.405Z,99747.47
2022-07-26T19:54:54.204Z,99747.38
2022-07-26T19:57:22.205Z,99745.75
2022-07-26T19:59:50.107Z,99733.88
2022-07-26T20:02:18.781Z,99728.84
2022-07-26T20:04:46.684Z,99737.69
2022-07-26T20:07:19.634Z,99740.78
2022-07-26T20:09:50.533Z,99745.16
2022-07-26T20:12:19.477Z,99742.13
2022-07-26T20:14:47.347Z,99751.06
2022-07-26T20:17:15.523Z,99760.00
2022-07-26T20:19:43.186Z,99763.69
2022-07-26T20:22:11.398Z,99755.03
2022-07-26T20:24:40.178Z,99764.16
2022-07-26T20:27:08.165Z,99763.25
2022-07-26T20:29:36.479Z,99770.28
2022-07-26T20:32:04.759Z,99765.72
2022-07-26T20:34:32.299Z,99768.47
2022-07-26T20:36:59.848Z,99769.41
2022-07-26T20:39:27.942Z,99763.59
2022-07-26T20:41:55.628Z,99767.50
2022-07-26T20:44:28.163Z,99765.75
2022-07-26T20:46:56.403Z,99768.38
2022-07-26T20:49:24.011Z,99768.53
2022-07-26T20:51:51.724Z,99766.28
2022-07-26T20:54:19.881Z,99767.22
2022-07-26T20:56:47.748Z,99775.34
2022-07-26T20:59:15.657Z,99783.31
2022-07-26T21:01:44.409Z,99783.19
2022-07-26T21:04:12.527Z,99783.97
2022-07-26T21:06:40.775Z,99782.03
2022-07-26T21:09:10.689Z,99792.44
2022-07-26T21:11:39.600Z,99794.03
2022-07-26T21:14:07.264Z,99803.53
2022-07-26T21:16:37.205Z,99797.59
2022-07-26T21:19:05.626Z,99798.69
2022-07-26T21:21:34.277Z,99800.06
2022-07-26T21:24:02.575Z,99801.16
2022-07-26T21:26:30.195Z,99807.09
2022-07-26T21:28:58.047Z,99811.53
2022-07-26T21:31:26.658Z,99820.72
2022-07-26T21:33:54.122Z,99813.66
2022-07-26T21:36:21.851Z,99821.78
2022-07-26T21:38:49.608Z,99815.38
2022-07-26T21:41:17.100Z,99832.34
2022-07-26T21:43:44.585Z,99831.72
2022-07-26T21:46:14.041Z,99836.75
2022-07-26T21:48:41.896Z,99843.94
2022-07-26T21:51:09.542Z,99842.31
2022-07-26T21:53:37.329Z,99848.41
2022-07-26T21:56:05.666Z,99854.97
2022-07-26T21:58:36.676Z,99862.63
2022-07-26T22:01:07.591Z,99859.53
2022-07-26T22:03:36.632Z,99853.59
2022-07-26T22:06:04.680Z,99865.97
2022-07-26T22:08:33.082Z,99859.88
2022-07-26T22:11:00.877Z,99855.88
2022-07-26T22:13:28.437Z,99857.13
2022-07-26T22:15:56.315Z,99856.81
2022-07-26T22:18:23.921Z,99855.88
2022-07-26T22:20:51.797Z,99857.09
2022-07-26T22:23:22.773Z,99857.72
2022-07-26T22:25:50.272Z,99860.78
2022-07-26T22:28:18.689Z,99854.34
2022-07-26T22:30:46.823Z,99862.47
2022-07-26T22:33:14.485Z,99870.28
2022-07-26T22:35:41.981Z,99858.66
2022-07-26T22:38:11.509Z,99862.31
2022-07-26T22:40:41.321Z,99862.16
2022-07-26T22:43:10.162Z,99864.78
2022-07-26T22:45:39.514Z,99866.59
2022-07-26T22:48:09.444Z,99871.00
2022-07-26T22:50:37.757Z,99874.47
2022-07-26T22:53:05.810Z,99868.63
2022-07-26T22:55:33.350Z,99876.25
2022-07-26T22:58:01.651Z,99871.53
2022-07-26T23:00:29.551Z,99880.06
2022-07-26T23:02:57.097Z,99877.16
2022-07-26T23:05:30.716Z,99869.97
2022-07-26T23:08:36.250Z,99871.06
2022-07-26T23:11:00.332Z,99876.06
2022-07-26T23:13:28.109Z,99878.22
2022-07-26T23:16:00.310Z,99881.06
2022-07-26T23:18:29.258Z,99881.19
2022-07-26T23:20:57.403Z,99875.69
2022-07-26T23:23:25.417Z,99870.06
2022-07-26T23:25:59.352Z,99877.38
2022-07-26T23:28:37.454Z,99879.63
2022-07-26T23:31:11.603Z,99888.16
2022-07-26T23:33:51.731Z,99884.28
2022-07-26T23:36:27.627Z,99885.31
2022-07-26T23:38:57.991Z,99885.19
2022-07-26T23:41:27.046Z,99890.53
2022-07-26T23:43:54.813Z,99884.28
2022-07-26T23:46:23.800Z,99886.09
2022-07-26T23:48:52.540Z,99882.38
2022-07-26T23:51:20.726Z,99881.75
2022-07-26T23:53:48.531Z,99890.84
2022-07-26T23:56:16.956Z,99885.59
2022-07-26T23:58:45.135Z,99875.41
